Sandy Springs, South Carolina
Current Conditions -  °F | °C
As of 2:56 PM on Friday 31 Oct 2014 (Local Time) from KAND Reporting Station
Clear Clear  
Wind Chill: 63°   Ceiling: Unl
Heat Index: 63°   Visibility: 10mi
Dew Point: 43°   Wind: 7mph
Humidity: 48%   Direction: 270°W
Pressure: 29.83"   Gusts: NA
Location:  34.6°N, 82.75°W
Report Text: KAND 311856Z AUTO 27006KT 10SM CLR 17/06 A2983 RMK AO2 SLP098 T01720061
Loading
Personal Weather Stations






























Interactive Weather Map
Tropical Storm Tracking
New forecast layout! Learn more

10-Day Weather Forecast

Advertisements
Track Severe Weather on mobile